createdAt,value
2022-08-23T00:01:21.307Z,5.82
2022-08-23T00:03:53.137Z,4.50
2022-08-23T00:06:21.994Z,4.55
2022-08-23T00:08:51.165Z,4.88
2022-08-23T00:11:27.535Z,5.18
2022-08-23T00:13:57.530Z,4.70
2022-08-23T00:16:25.352Z,4.50
2022-08-23T00:18:53.198Z,4.97
2022-08-23T00:21:21.463Z,4.75
2022-08-23T00:23:49.289Z,5.38
2022-08-23T00:26:17.870Z,4.35
2022-08-23T00:28:45.664Z,4.60
2022-08-23T00:31:14.916Z,5.25
2022-08-23T00:33:42.810Z,5.25
2022-08-23T00:36:10.669Z,4.68
2022-08-23T00:38:39.005Z,5.75
2022-08-23T00:41:07.278Z,5.57
2022-08-23T00:43:56.819Z,5.18
2022-08-23T00:47:10.311Z,4.50
2022-08-23T00:49:40.888Z,5.03
2022-08-23T00:52:11.995Z,5.75
2022-08-23T00:54:42.207Z,4.90
2022-08-23T00:57:14.395Z,5.82
2022-08-23T00:59:42.414Z,5.30
2022-08-23T01:02:12.193Z,5.60
2022-08-23T01:04:44.350Z,4.88
2022-08-23T01:07:22.111Z,4.82
2022-08-23T01:09:52.848Z,5.03
2022-08-23T01:12:32.275Z,4.90
2022-08-23T01:15:05.927Z,5.40
2022-08-23T01:17:39.741Z,5.03
2022-08-23T01:20:11.661Z,4.97
2022-08-23T01:22:44.813Z,6.22
2022-08-23T01:25:19.269Z,5.50
2022-08-23T01:27:47.581Z,5.45
2022-08-23T01:30:18.457Z,4.85
2022-08-23T01:32:50.399Z,4.70
2022-08-23T01:37:53.771Z,5.05
2022-08-23T01:40:23.061Z,7.00
2022-08-23T01:42:50.942Z,4.73
2022-08-23T01:45:18.957Z,5.40
2022-08-23T01:47:46.767Z,5.60
2022-08-23T01:50:15.206Z,5.57
2022-08-23T01:52:47.255Z,5.05
2022-08-23T01:55:15.613Z,4.97
2022-08-23T01:57:47.790Z,4.63
2022-08-23T02:00:18.654Z,5.00
2022-08-23T02:02:46.888Z,6.75
2022-08-23T02:05:18.394Z,5.30
2022-08-23T02:07:47.291Z,6.00
2022-08-23T02:10:15.862Z,5.28
2022-08-23T02:12:46.587Z,5.18
2022-08-23T02:15:15.269Z,5.70
2022-08-23T02:17:44.047Z,5.25
2022-08-23T02:20:12.824Z,4.95
2022-08-23T02:22:40.704Z,5.55
2022-08-23T02:25:09.614Z,5.47
2022-08-23T02:27:37.821Z,5.78
2022-08-23T02:30:14.200Z,5.13
2022-08-23T02:32:42.238Z,5.65
2022-08-23T02:35:10.690Z,6.00
2022-08-23T02:37:38.601Z,5.72
2022-08-23T02:40:07.795Z,5.75
2022-08-23T02:42:35.854Z,5.88
2022-08-23T02:45:03.746Z,5.60
2022-08-23T02:47:32.946Z,5.97
2022-08-23T02:50:00.756Z,5.68
2022-08-23T02:52:28.603Z,5.82
2022-08-23T02:54:58.252Z,6.32
2022-08-23T02:57:26.164Z,6.10
2022-08-23T02:59:55.020Z,6.60
2022-08-23T03:02:23.615Z,5.93
2022-08-23T03:04:52.846Z,5.80
2022-08-23T03:07:20.658Z,5.80
2022-08-23T03:09:48.558Z,6.13
2022-08-23T03:12:16.973Z,5.47
2022-08-23T03:14:44.978Z,5.40
2022-08-23T03:17:14.229Z,5.80
2022-08-23T03:19:42.050Z,6.00
2022-08-23T03:22:11.420Z,5.63
2022-08-23T03:24:39.315Z,5.93
2022-08-23T03:27:07.223Z,6.00
2022-08-23T03:29:35.237Z,5.80
2022-08-23T03:32:03.742Z,6.47
2022-08-23T03:34:32.115Z,6.20
2022-08-23T03:36:59.974Z,7.82
2022-08-23T03:39:29.239Z,6.53
2022-08-23T03:41:57.122Z,6.28
2022-08-23T03:44:24.935Z,6.70
2022-08-23T03:46:52.767Z,6.47
2022-08-23T03:49:20.630Z,6.63
2022-08-23T03:51:48.518Z,5.97
2022-08-23T03:54:17.103Z,6.10
2022-08-23T03:56:54.142Z,6.10
2022-08-23T03:59:22.645Z,6.18
2022-08-23T04:01:50.577Z,6.38
2022-08-23T04:04:18.614Z,6.20
2022-08-23T04:06:47.470Z,6.30
2022-08-23T04:09:16.888Z,6.40
2022-08-23T04:11:45.856Z,6.38
2022-08-23T04:14:15.399Z,6.18
2022-08-23T04:16:44.343Z,6.68
2022-08-23T04:19:14.039Z,6.47
2022-08-23T04:21:45.443Z,6.13
2022-08-23T04:24:14.495Z,6.43
2022-08-23T04:26:42.393Z,6.40
2022-08-23T04:29:14.608Z,6.20
2022-08-23T04:31:57.688Z,6.43
2022-08-23T04:34:28.761Z,6.97
2022-08-23T04:36:56.701Z,6.30
2022-08-23T04:39:24.514Z,7.28
2022-08-23T04:42:14.298Z,5.95
2022-08-23T04:44:42.784Z,6.05
2022-08-23T04:47:12.198Z,6.20
2022-08-23T04:49:39.973Z,6.35
2022-08-23T04:52:07.958Z,6.45
2022-08-23T04:54:36.226Z,6.73
2022-08-23T04:57:04.207Z,5.88
2022-08-23T04:59:32.109Z,6.05
2022-08-23T05:01:59.971Z,5.75
2022-08-23T05:04:29.327Z,5.90
2022-08-23T05:06:57.161Z,6.57
2022-08-23T05:09:25.356Z,6.30
2022-08-23T05:11:53.165Z,6.70
2022-08-23T05:14:20.969Z,7.93
2022-08-23T05:16:49.176Z,6.53
2022-08-23T05:19:17.106Z,6.60
2022-08-23T05:21:46.432Z,6.32
2022-08-23T05:24:14.312Z,5.90
2022-08-23T05:26:42.319Z,7.10
2022-08-23T05:29:10.151Z,6.38
2022-08-23T05:31:38.063Z,6.20
2022-08-23T05:34:05.872Z,6.10
2022-08-23T05:36:34.567Z,5.97
2022-08-23T05:39:03.931Z,7.30
2022-08-23T05:41:35.150Z,6.22
2022-08-23T05:44:06.430Z,6.68
2022-08-23T05:46:35.692Z,6.55
2022-08-23T05:49:03.586Z,6.37
2022-08-23T05:51:33.383Z,6.00
2022-08-23T05:54:05.349Z,6.72
2022-08-23T05:56:36.113Z,6.10
2022-08-23T05:59:12.616Z,6.45
2022-08-23T06:01:41.765Z,6.85
2022-08-23T06:04:11.896Z,6.10
2022-08-23T06:06:41.468Z,6.72
2022-08-23T06:09:13.198Z,6.28
2022-08-23T06:11:41.475Z,6.43
2022-08-23T06:14:10.104Z,7.35
2022-08-23T06:16:43.592Z,6.35
2022-08-23T06:19:11.971Z,6.68
2022-08-23T06:21:40.461Z,7.22
2022-08-23T06:24:10.394Z,7.00
2022-08-23T06:26:40.395Z,7.18
2022-08-23T06:29:12.015Z,6.20
2022-08-23T06:31:48.473Z,6.57
2022-08-23T06:34:21.070Z,5.97
2022-08-23T06:36:51.387Z,5.68
2022-08-23T06:39:23.223Z,5.95
2022-08-23T06:41:51.604Z,5.20
2022-08-23T06:44:20.913Z,6.20
2022-08-23T06:46:49.329Z,5.15
2022-08-23T06:49:17.867Z,6.18
2022-08-23T06:51:49.285Z,4.55
2022-08-23T06:54:19.225Z,5.73
2022-08-23T06:56:49.325Z,4.77
2022-08-23T06:59:18.689Z,5.07
2022-08-23T07:01:49.222Z,4.15
2022-08-23T07:04:19.350Z,4.47
2022-08-23T07:06:47.434Z,4.30
2022-08-23T07:09:15.686Z,5.20
2022-08-23T07:11:43.704Z,3.80
2022-08-23T07:14:15.101Z,6.80
2022-08-23T07:16:46.285Z,3.88
2022-08-23T07:19:14.329Z,5.70
2022-08-23T07:21:43.627Z,3.63
2022-08-23T07:24:14.658Z,4.25
2022-08-23T07:26:45.238Z,4.75
2022-08-23T07:29:16.588Z,4.10
2022-08-23T07:31:46.928Z,4.20
2022-08-23T07:34:15.833Z,4.82
2022-08-23T07:36:45.568Z,5.18
2022-08-23T07:39:14.805Z,3.70
2022-08-23T07:41:43.568Z,4.30
2022-08-23T07:44:12.671Z,5.28
2022-08-23T07:46:47.141Z,3.22
2022-08-23T07:49:15.914Z,4.72
2022-08-23T07:51:47.955Z,4.75
2022-08-23T07:54:18.056Z,4.07
2022-08-23T07:56:46.125Z,3.75
2022-08-23T07:59:14.471Z,4.65
2022-08-23T08:01:45.449Z,5.45
2022-08-23T08:04:13.530Z,3.58
2022-08-23T08:06:43.897Z,5.18
2022-08-23T08:09:12.921Z,3.95
2022-08-23T08:11:44.207Z,4.50
2022-08-23T08:14:12.665Z,5.18
2022-08-23T08:16:42.993Z,5.05
2022-08-23T08:19:15.582Z,3.95
2022-08-23T08:21:48.240Z,5.63
2022-08-23T08:24:17.466Z,5.18
2022-08-23T08:26:46.382Z,5.30
2022-08-23T08:29:14.853Z,3.58
2022-08-23T08:31:45.269Z,3.83
2022-08-23T08:34:14.653Z,3.75
2022-08-23T08:36:44.151Z,2.38
2022-08-23T08:39:14.418Z,3.67
2022-08-23T08:41:50.851Z,3.15
2022-08-23T08:44:39.386Z,2.60
2022-08-23T08:47:13.142Z,3.67
2022-08-23T08:49:49.685Z,3.63
2022-08-23T08:52:21.737Z,3.83
2022-08-23T08:54:55.683Z,3.47
2022-08-23T08:57:27.450Z,2.80
2022-08-23T09:00:01.226Z,4.05
2022-08-23T09:02:33.857Z,3.63
2022-08-23T09:05:08.266Z,3.65
2022-08-23T09:07:48.068Z,3.55
2022-08-23T09:10:45.098Z,6.47
2022-08-23T09:13:33.103Z,3.63
2022-08-23T09:16:08.714Z,4.25
2022-08-23T09:18:37.901Z,3.28
2022-08-23T09:21:09.763Z,2.63
2022-08-23T09:23:42.773Z,3.55
2022-08-23T09:26:20.383Z,3.38
2022-08-23T09:28:49.472Z,4.25
2022-08-23T09:31:38.113Z,4.63
2022-08-23T09:34:06.497Z,4.22
2022-08-23T09:36:38.371Z,3.67
2022-08-23T09:39:09.827Z,4.07
2022-08-23T09:41:43.526Z,3.30
2022-08-23T09:44:16.191Z,4.22
2022-08-23T09:46:44.215Z,4.10
2022-08-23T09:49:26.767Z,3.10
2022-08-23T09:51:57.590Z,7.05
2022-08-23T09:54:31.895Z,4.68
2022-08-23T09:57:09.221Z,3.42
2022-08-23T09:59:42.694Z,4.95
2022-08-23T10:02:17.342Z,5.18
2022-08-23T10:04:48.103Z,4.70
2022-08-23T10:07:27.602Z,3.67
2022-08-23T10:09:55.661Z,4.32
2022-08-23T10:12:23.768Z,5.72
2022-08-23T10:14:52.004Z,4.57
2022-08-23T10:17:34.064Z,5.40
2022-08-23T10:20:15.400Z,4.47
2022-08-23T10:22:50.598Z,3.67
2022-08-23T10:25:27.221Z,3.83
2022-08-23T10:28:20.549Z,3.92
2022-08-23T10:30:54.897Z,3.13
2022-08-23T10:33:27.502Z,3.45
2022-08-23T10:36:07.534Z,3.47
2022-08-23T10:38:41.704Z,3.97
2022-08-23T10:41:25.226Z,4.50
2022-08-23T10:44:22.537Z,3.22
2022-08-23T10:47:01.969Z,2.70
2022-08-23T10:49:30.377Z,3.63
2022-08-23T10:52:03.196Z,3.92
2022-08-23T10:54:46.287Z,5.27
2022-08-23T10:57:17.799Z,3.97
2022-08-23T10:59:48.030Z,3.10
2022-08-23T11:02:25.102Z,5.63
2022-08-23T11:04:57.997Z,2.53
2022-08-23T11:07:29.207Z,2.60
2022-08-23T11:10:16.829Z,3.70
2022-08-23T11:12:55.420Z,2.95
2022-08-23T11:15:29.935Z,4.10
2022-08-23T11:18:04.425Z,3.33
2022-08-23T11:21:08.777Z,2.33
2022-08-23T11:23:41.816Z,3.25
2022-08-23T11:26:36.308Z,5.05
2022-08-23T11:29:28.985Z,6.47
2022-08-23T11:32:04.355Z,2.42
2022-08-23T11:34:35.882Z,4.35
2022-08-23T11:37:28.394Z,3.17
2022-08-23T11:40:14.784Z,2.47
2022-08-23T11:42:53.741Z,3.22
2022-08-23T11:45:33.278Z,3.40
2022-08-23T11:48:14.711Z,3.22
2022-08-23T11:51:03.324Z,3.33
2022-08-23T11:53:43.635Z,2.13
2022-08-23T11:56:28.680Z,3.10
2022-08-23T11:59:13.691Z,2.75
2022-08-23T12:01:43.349Z,2.78
2022-08-23T12:04:15.083Z,3.40
2022-08-23T12:06:51.026Z,2.97
2022-08-23T12:09:55.794Z,4.07
2022-08-23T12:12:47.008Z,2.55
2022-08-23T12:15:18.487Z,2.30
2022-08-23T12:18:07.115Z,2.88
2022-08-23T12:20:36.272Z,3.33
2022-08-23T12:23:17.522Z,2.55
2022-08-23T12:25:46.227Z,2.63
2022-08-23T12:28:34.003Z,2.55
2022-08-23T12:31:13.450Z,3.13
2022-08-23T12:33:52.911Z,2.05
2022-08-23T12:36:28.639Z,2.40
2022-08-23T12:39:02.428Z,3.20
2022-08-23T12:41:32.975Z,2.47
2022-08-23T12:44:03.990Z,3.97
2022-08-23T12:46:37.141Z,3.20
2022-08-23T12:49:06.867Z,5.55
2022-08-23T12:51:41.613Z,3.58
2022-08-23T12:54:17.917Z,3.03
2022-08-23T12:56:48.590Z,2.40
2022-08-23T12:59:34.003Z,2.93
2022-08-23T13:02:05.987Z,4.32
2022-08-23T13:04:35.945Z,2.17
2022-08-23T13:07:10.986Z,2.97
2022-08-23T13:09:41.985Z,2.70
2022-08-23T13:12:11.544Z,2.70
2022-08-23T13:14:45.367Z,1.92
2022-08-23T13:17:17.620Z,2.35
2022-08-23T13:19:46.274Z,1.70
2022-08-23T13:22:22.132Z,2.43
2022-08-23T13:25:28.037Z,1.75
2022-08-23T13:27:54.710Z,2.70
2022-08-23T13:30:26.961Z,3.15
2022-08-23T13:33:20.233Z,1.80
2022-08-23T13:35:49.693Z,2.90
2022-08-23T13:38:23.064Z,2.80
2022-08-23T13:41:00.831Z,4.07
2022-08-23T13:43:33.558Z,2.25
2022-08-23T13:46:11.201Z,3.42
2022-08-23T13:48:47.015Z,2.03
2022-08-23T13:51:19.551Z,2.33
2022-08-23T13:53:47.903Z,1.90
2022-08-23T13:56:16.247Z,3.30
2022-08-23T13:58:44.187Z,1.67
2022-08-23T14:01:19.343Z,2.75
2022-08-23T14:03:48.598Z,1.80
2022-08-23T14:06:16.475Z,2.30
2022-08-23T14:08:44.460Z,2.65
2022-08-23T14:11:15.776Z,2.65
2022-08-23T14:13:47.878Z,2.50
2022-08-23T14:16:40.044Z,3.47
2022-08-23T14:19:16.492Z,2.17
2022-08-23T14:21:46.700Z,1.75
2022-08-23T14:24:14.571Z,2.30
2022-08-23T14:26:51.616Z,3.28
2022-08-23T14:29:21.471Z,2.10
2022-08-23T14:31:51.750Z,1.93
2022-08-23T14:34:21.355Z,2.67
2022-08-23T14:39:37.998Z,3.38
2022-08-23T14:42:07.147Z,2.20
2022-08-23T14:44:36.266Z,2.67
2022-08-23T14:47:05.439Z,2.27
2022-08-23T14:49:34.857Z,2.83
2022-08-23T14:52:03.241Z,2.93
2022-08-23T14:54:31.669Z,2.65
2022-08-23T14:56:59.542Z,2.60
2022-08-23T14:59:27.510Z,2.88
2022-08-23T15:01:56.028Z,3.38
2022-08-23T15:04:25.369Z,3.50
2022-08-23T15:07:17.794Z,2.92
2022-08-23T15:09:46.882Z,1.80
2022-08-23T15:15:02.715Z,1.73
2022-08-23T15:17:31.829Z,1.73
2022-08-23T15:20:00.092Z,2.45
2022-08-23T15:22:29.322Z,2.67
2022-08-23T15:24:57.155Z,1.90
2022-08-23T15:27:25.906Z,2.85
2022-08-23T15:29:53.768Z,3.10
2022-08-23T15:32:22.535Z,1.65
2022-08-23T15:34:51.355Z,2.35
2022-08-23T15:37:22.144Z,1.98
2022-08-23T15:39:51.519Z,2.65
2022-08-23T15:42:20.438Z,2.13
2022-08-23T15:44:48.966Z,3.42
2022-08-23T15:47:22.591Z,2.40
2022-08-23T15:49:50.650Z,2.97
2022-08-23T15:52:21.214Z,1.80
2022-08-23T15:54:50.799Z,1.75
2022-08-23T15:57:24.134Z,1.63
2022-08-23T15:59:55.973Z,2.50
2022-08-23T16:02:24.309Z,2.00
2022-08-23T16:04:52.227Z,2.65
2022-08-23T16:07:21.463Z,2.60
2022-08-23T16:09:50.702Z,2.60
2022-08-23T16:12:18.507Z,2.97
2022-08-23T16:14:46.399Z,2.00
2022-08-23T16:17:14.909Z,5.50
2022-08-23T16:19:44.238Z,2.70
2022-08-23T16:22:12.377Z,3.55
2022-08-23T16:24:40.512Z,2.42
2022-08-23T16:27:10.095Z,2.83
2022-08-23T16:29:39.102Z,2.85
2022-08-23T16:32:07.863Z,2.60
2022-08-23T16:34:36.578Z,2.85
2022-08-23T16:37:09.530Z,3.60
2022-08-23T16:39:38.072Z,3.22
2022-08-23T16:42:07.658Z,2.00
2022-08-23T16:44:37.074Z,3.63
2022-08-23T16:47:06.549Z,2.63
2022-08-23T16:49:34.869Z,2.50
2022-08-23T16:52:03.232Z,3.38
2022-08-23T16:54:31.236Z,3.42
2022-08-23T16:56:59.107Z,2.38
2022-08-23T16:59:26.987Z,2.42
2022-08-23T17:02:04.446Z,2.33
2022-08-23T17:04:39.201Z,2.83
2022-08-23T17:07:07.386Z,2.83
2022-08-23T17:09:35.283Z,3.25
2022-08-23T17:12:03.559Z,3.17
2022-08-23T17:14:31.366Z,2.50
2022-08-23T17:17:00.970Z,3.67
2022-08-23T17:19:28.910Z,3.40
2022-08-23T17:21:56.760Z,2.90
2022-08-23T17:24:24.943Z,4.40
2022-08-23T17:26:52.772Z,2.40
2022-08-23T17:29:20.592Z,2.40
2022-08-23T17:31:48.632Z,3.65
2022-08-23T17:34:17.870Z,2.90
2022-08-23T17:36:48.519Z,2.90
2022-08-23T17:39:18.794Z,2.15
2022-08-23T17:41:47.015Z,2.90
2022-08-23T17:44:15.565Z,3.25
2022-08-23T17:46:45.454Z,2.60
2022-08-23T17:49:14.794Z,3.05
2022-08-23T17:51:44.144Z,3.28
2022-08-23T17:54:15.842Z,2.55
2022-08-23T17:56:50.117Z,3.00
2022-08-23T17:59:18.783Z,3.97
2022-08-23T18:01:46.602Z,4.32
2022-08-23T18:04:14.607Z,2.90
2022-08-23T18:06:43.857Z,3.10
2022-08-23T18:09:12.263Z,3.90
2022-08-23T18:11:40.178Z,3.75
2022-08-23T18:14:08.373Z,4.10
2022-08-23T18:16:36.701Z,3.53
2022-08-23T18:19:05.855Z,3.45
2022-08-23T18:21:38.513Z,4.05
2022-08-23T18:24:09.243Z,3.00
2022-08-23T18:26:55.261Z,3.30
2022-08-23T18:29:24.404Z,5.30
2022-08-23T18:31:52.450Z,3.88
2022-08-23T18:34:20.683Z,4.97
2022-08-23T18:36:48.697Z,5.13
2022-08-23T18:39:31.295Z,3.25
2022-08-23T18:42:00.422Z,4.45
2022-08-23T18:44:28.260Z,5.45
2022-08-23T18:46:56.226Z,5.37
2022-08-23T18:49:24.095Z,5.07
2022-08-23T18:51:51.901Z,6.97
2022-08-23T18:54:21.160Z,5.05
2022-08-23T18:56:49.208Z,5.00
2022-08-23T18:59:17.058Z,5.40
2022-08-23T19:01:45.277Z,6.88
2022-08-23T19:04:14.689Z,6.05
2022-08-23T19:06:42.883Z,4.40
2022-08-23T19:09:11.362Z,5.43
2022-08-23T19:11:43.136Z,6.07
2022-08-23T19:14:12.662Z,5.88
2022-08-23T19:16:44.650Z,5.47
2022-08-23T19:19:15.989Z,4.85
2022-08-23T19:21:43.816Z,4.72
2022-08-23T19:24:11.716Z,4.95
2022-08-23T19:26:40.073Z,4.93
2022-08-23T19:29:10.166Z,5.00
2022-08-23T19:31:43.051Z,4.32
2022-08-23T19:34:11.288Z,6.32
2022-08-23T19:36:49.275Z,7.03
2022-08-23T19:39:19.922Z,5.93
2022-08-23T19:41:48.549Z,7.10
2022-08-23T19:44:18.077Z,5.05
2022-08-23T19:46:46.238Z,5.35
2022-08-23T19:49:15.506Z,5.97
2022-08-23T19:51:44.075Z,6.72
2022-08-23T19:54:13.574Z,4.90
2022-08-23T19:56:44.717Z,5.50
2022-08-23T19:59:16.209Z,7.63
2022-08-23T20:01:45.513Z,5.53
2022-08-23T20:04:13.876Z,6.40
2022-08-23T20:06:41.977Z,5.75
2022-08-23T20:09:10.197Z,4.40
2022-08-23T20:11:38.914Z,7.60
2022-08-23T20:14:07.382Z,6.82
2022-08-23T20:16:36.582Z,4.90
2022-08-23T20:19:07.783Z,5.45
2022-08-23T20:21:35.821Z,4.70
2022-08-23T20:24:03.975Z,6.32
2022-08-23T20:26:33.711Z,4.60
2022-08-23T20:29:02.134Z,5.00
2022-08-23T20:31:32.422Z,5.05
2022-08-23T20:34:00.673Z,5.38
2022-08-23T20:36:30.130Z,5.60
2022-08-23T20:38:59.942Z,7.50
2022-08-23T20:41:28.797Z,8.10
2022-08-23T20:43:56.702Z,7.45
2022-08-23T20:46:24.640Z,6.25
2022-08-23T20:48:53.354Z,5.93
2022-08-23T20:51:22.116Z,6.47
2022-08-23T20:53:51.990Z,6.35
2022-08-23T20:56:20.276Z,7.30
2022-08-23T20:58:48.450Z,6.00
2022-08-23T21:01:17.385Z,6.30
2022-08-23T21:03:45.456Z,7.75
2022-08-23T21:06:20.093Z,7.00
2022-08-23T21:08:53.399Z,6.65
2022-08-23T21:11:22.550Z,7.35
2022-08-23T21:13:50.582Z,7.38
2022-08-23T21:16:19.000Z,6.10
2022-08-23T21:18:47.420Z,6.15
2022-08-23T21:21:19.713Z,6.70
2022-08-23T21:23:50.878Z,6.07
2022-08-23T21:26:19.689Z,6.03
2022-08-23T21:28:47.759Z,6.72
2022-08-23T21:31:24.601Z,6.72
2022-08-23T21:33:53.650Z,6.50
2022-08-23T21:36:24.048Z,7.60
2022-08-23T21:38:53.539Z,6.47
2022-08-23T21:41:31.228Z,7.10
2022-08-23T21:43:59.156Z,6.85
2022-08-23T21:46:27.513Z,6.03
2022-08-23T21:48:55.730Z,7.90
2022-08-23T21:51:23.765Z,6.20
2022-08-23T21:53:53.342Z,6.83
2022-08-23T21:56:21.394Z,6.85
2022-08-23T21:58:50.634Z,7.63
2022-08-23T22:01:18.939Z,6.55
2022-08-23T22:03:46.841Z,6.15
2022-08-23T22:06:17.168Z,6.10
2022-08-23T22:08:45.882Z,6.78
2022-08-23T22:11:16.390Z,5.93
2022-08-23T22:13:44.676Z,5.72
2022-08-23T22:16:12.936Z,5.68
2022-08-23T22:18:41.100Z,7.70
2022-08-23T22:21:09.006Z,6.53
2022-08-23T22:23:41.810Z,5.95
2022-08-23T22:26:10.202Z,6.50
2022-08-23T22:28:39.734Z,5.93
2022-08-23T22:31:08.460Z,7.10
2022-08-23T22:33:36.342Z,5.50
2022-08-23T22:36:07.003Z,6.28
2022-08-23T22:38:34.865Z,6.13
2022-08-23T22:41:02.931Z,7.17
2022-08-23T22:43:30.828Z,5.90
2022-08-23T22:46:02.024Z,5.63
2022-08-23T22:48:32.813Z,7.35
2022-08-23T22:51:10.039Z,5.78
2022-08-23T22:53:39.509Z,5.93
2022-08-23T22:56:08.798Z,9.32
2022-08-23T22:58:36.839Z,6.20
2022-08-23T23:01:12.792Z,6.18
2022-08-23T23:03:41.971Z,5.55
2022-08-23T23:06:10.343Z,5.78
2022-08-23T23:08:38.208Z,6.68
2022-08-23T23:11:08.367Z,6.18
2022-08-23T23:13:36.617Z,5.78
2022-08-23T23:16:08.363Z,6.40
2022-08-23T23:18:37.039Z,6.15
2022-08-23T23:21:05.442Z,7.33
2022-08-23T23:23:34.526Z,7.75
2022-08-23T23:26:03.574Z,6.47
2022-08-23T23:28:32.015Z,7.07
2022-08-23T23:31:00.101Z,6.80
2022-08-23T23:33:29.754Z,6.50
2022-08-23T23:35:57.565Z,6.65
2022-08-23T23:38:25.586Z,7.25
2022-08-23T23:40:53.413Z,7.00
2022-08-23T23:43:21.242Z,6.70
2022-08-23T23:45:49.139Z,7.00
2022-08-23T23:48:17.054Z,7.90
2022-08-23T23:50:46.959Z,6.38
2022-08-23T23:53:15.079Z,6.75
2022-08-23T23:55:44.324Z,6.78
2022-08-23T23:58:12.920Z,6.55
